Time,TemperatureF,DewpointF,PressureIn,WindDirection,WindDirectionDegrees,WindSpeedMPH,WindSpeedGustMPH,Humidity,HourlyPrecipIn,Conditions,Clouds,dailyrainin,SoftwareType,DateUTC
2013-02-13 00:00:00,34.1,31.2,30.28,West,273,0.0,0.0,89,0.00,,SKC,0.00,VWS V14.01,2013-02-13 08:00:00,
2013-02-13 00:03:00,34.6,31.4,30.28,West,273,0.0,0.0,88,0.00,,SKC,0.00,VWS V14.01,2013-02-13 08:03:00,
2013-02-13 00:08:00,34.6,31.4,30.28,West,273,0.0,0.0,88,0.00,,SKC,0.00,VWS V14.01,2013-02-13 08:08:00,
2013-02-13 00:13:00,34.6,31.4,30.28,West,273,0.0,0.0,88,0.00,,SKC,0.00,VWS V14.01,2013-02-13 08:13:00,
2013-02-13 00:18:00,34.4,31.2,30.28,West,273,0.0,0.0,88,0.00,,SKC,0.00,VWS V14.01,2013-02-13 08:18:00,
2013-02-13 00:23:00,34.4,31.5,30.28,West,273,0.0,0.0,89,0.00,,SKC,0.00,VWS V14.01,2013-02-13 08:23:00,
2013-02-13 00:28:00,34.4,31.5,30.28,West,273,0.0,0.0,89,0.00,,SKC,0.00,VWS V14.01,2013-02-13 08:28:00,
2013-02-13 00:30:00,33.8,31.2,30.29,West,273,0.0,0.0,90,0.00,,SKC,0.00,VWS V14.01,2013-02-13 08:30:00,
2013-02-13 00:33:00,34.4,31.5,30.28,West,273,0.0,0.0,89,0.00,,SKC,0.00,VWS V14.01,2013-02-13 08:33:00,
2013-02-13 00:38:00,34.3,31.1,30.28,West,273,0.0,0.0,88,0.00,,SKC,0.00,VWS V14.01,2013-02-13 08:38:00,
2013-02-13 00:43:00,34.1,31.2,30.28,West,273,0.0,0.0,89,0.00,,SKC,0.00,VWS V14.01,2013-02-13 08:43:00,
2013-02-13 00:48:00,34.0,31.1,30.28,West,273,0.0,0.0,89,0.00,,SKC,0.00,VWS V14.01,2013-02-13 08:48:00,
2013-02-13 00:53:00,34.1,31.2,30.28,West,273,0.0,0.0,89,0.00,,SKC,0.00,VWS V14.01,2013-02-13 08:53:00,
2013-02-13 00:58:00,34.1,31.2,30.28,West,273,0.0,0.0,89,0.00,,SKC,0.00,VWS V14.01,2013-02-13 08:58:00,
2013-02-13 01:00:00,33.5,30.9,30.28,West,273,0.0,0.0,90,0.00,,SKC,0.00,VWS V14.01,2013-02-13 09:00:00,
2013-02-13 01:03:00,34.1,31.2,30.28,West,273,0.0,0.0,89,0.00,,SKC,0.00,VWS V14.01,2013-02-13 09:03:00,
2013-02-13 01:08:00,34.1,31.2,30.28,West,273,0.0,0.0,89,0.00,,SKC,0.00,VWS V14.01,2013-02-13 09:08:00,
2013-02-13 01:14:00,33.8,30.9,30.28,West,273,0.0,0.0,89,0.00,,SKC,0.00,VWS V14.01,2013-02-13 09:14:00,
2013-02-13 01:19:00,33.8,30.9,30.28,West,273,0.0,0.0,89,0.00,,SKC,0.00,VWS V14.01,2013-02-13 09:19:00,
2013-02-13 01:24:00,33.8,30.9,30.28,West,273,0.0,0.0,89,0.00,,SKC,0.00,VWS V14.01,2013-02-13 09:24:00,
2013-02-13 01:29:00,33.8,31.2,30.29,West,273,0.0,0.0,90,0.00,,SKC,0.00,VWS V14.01,2013-02-13 09:29:00,
2013-02-13 01:30:00,33.2,30.6,30.28,West,273,0.0,0.0,90,0.00,,SKC,0.00,VWS V14.01,2013-02-13 09:30:00,
2013-02-13 01:34:00,34.0,31.4,30.29,West,273,0.0,0.0,90,0.00,,SKC,0.00,VWS V14.01,2013-02-13 09:34:00,
2013-02-13 01:39:00,34.1,31.5,30.29,West,273,0.0,0.0,90,0.00,,SKC,0.00,VWS V14.01,2013-02-13 09:39:00,
2013-02-13 01:44:00,34.1,31.5,30.28,West,273,0.0,0.0,90,0.00,,SKC,0.00,VWS V14.01,2013-02-13 09:44:00,
2013-02-13 01:49:00,33.8,30.9,30.28,West,273,0.0,0.0,89,0.00,,SKC,0.00,VWS V14.01,2013-02-13 09:49:00,
2013-02-13 01:54:00,33.7,31.1,30.28,West,273,0.0,0.0,90,0.00,,SKC,0.00,VWS V14.01,2013-02-13 09:54:00,
2013-02-13 01:59:00,33.5,30.6,30.28,West,273,0.0,0.0,89,0.00,,SKC,0.00,VWS V14.01,2013-02-13 09:59:00,
2013-02-13 02:00:00,32.9,30.3,30.27,West,273,0.0,0.0,90,0.00,,SKC,0.00,VWS V14.01,2013-02-13 10:00:00,
2013-02-13 02:04:00,33.4,30.8,30.28,West,273,0.0,0.0,90,0.00,,SKC,0.00,VWS V14.01,2013-02-13 10:04:00,
2013-02-13 02:09:00,33.2,30.3,30.28,West,273,0.0,0.0,89,0.00,,SKC,0.00,VWS V14.01,2013-02-13 10:09:00,
2013-02-13 02:14:00,33.2,30.6,30.28,West,273,0.0,0.0,90,0.00,,SKC,0.00,VWS V14.01,2013-02-13 10:14:00,
2013-02-13 02:19:00,33.1,30.5,30.28,West,273,0.0,0.0,90,0.00,,SKC,0.00,VWS V14.01,2013-02-13 10:19:00,
2013-02-13 02:24:00,33.2,30.6,30.28,West,273,0.0,0.0,90,0.00,,SKC,0.00,VWS V14.01,2013-02-13 10:24:00,
2013-02-13 02:29:00,33.2,30.6,30.28,West,273,0.0,0.0,90,0.00,,SKC,0.00,VWS V14.01,2013-02-13 10:29:00,
2013-02-13 02:30:00,32.8,30.2,30.27,West,273,0.0,0.0,90,0.00,,SKC,0.00,VWS V14.01,2013-02-13 10:30:00,
2013-02-13 02:34:00,33.4,30.8,30.28,West,273,0.0,0.0,90,0.00,,SKC,0.00,VWS V14.01,2013-02-13 10:34:00,
2013-02-13 02:39:00,33.4,30.8,30.28,West,273,0.0,0.0,90,0.00,,SKC,0.00,VWS V14.01,2013-02-13 10:39:00,
2013-02-13 02:45:00,33.2,30.6,30.27,West,273,0.0,0.0,90,0.00,,SKC,0.00,VWS V14.01,2013-02-13 10:45:00,
2013-02-13 02:50:00,33.1,30.5,30.27,West,273,0.0,0.0,90,0.00,,SKC,0.00,VWS V14.01,2013-02-13 10:50:00,
2013-02-13 02:55:00,32.9,30.3,30.27,West,273,0.0,0.0,90,0.00,,SKC,0.00,VWS V14.01,2013-02-13 10:55:00,
2013-02-13 03:00:00,32.9,30.3,30.27,West,273,0.0,0.0,90,0.00,,SKC,0.00,VWS V14.01,2013-02-13 11:00:00,
2013-02-13 03:05:00,32.9,30.3,30.27,West,273,0.0,0.0,90,0.00,,SKC,0.00,VWS V14.01,2013-02-13 11:05:00,
2013-02-13 03:10:00,32.8,30.2,30.27,West,273,0.0,0.0,90,0.00,,SKC,0.00,VWS V14.01,2013-02-13 11:10:00,
2013-02-13 03:15:00,32.8,30.2,30.28,West,273,0.0,0.0,90,0.00,,SKC,0.00,VWS V14.01,2013-02-13 11:15:00,
2013-02-13 03:20:00,32.8,30.2,30.28,West,273,0.0,0.0,90,0.00,,SKC,0.00,VWS V14.01,2013-02-13 11:20:00,
2013-02-13 03:25:00,32.9,30.3,30.28,West,273,0.0,0.0,90,0.00,,SKC,0.00,VWS V14.01,2013-02-13 11:25:00,
2013-02-13 03:30:00,32.8,30.2,30.27,West,273,0.0,0.0,90,0.00,,SKC,0.00,VWS V14.01,2013-02-13 11:30:00,
2013-02-13 03:35:00,32.8,30.2,30.27,West,273,0.0,0.0,90,0.00,,SKC,0.00,VWS V14.01,2013-02-13 11:35:00,
2013-02-13 03:40:00,32.5,29.9,30.27,West,273,0.0,0.0,90,0.00,,SKC,0.00,VWS V14.01,2013-02-13 11:40:00,
2013-02-13 03:45:00,32.5,29.9,30.27,West,273,0.0,0.0,90,0.00,,SKC,0.00,VWS V14.01,2013-02-13 11:45:00,
2013-02-13 03:50:00,32.4,29.8,30.27,West,273,0.0,0.0,90,0.00,,SKC,0.00,VWS V14.01,2013-02-13 11:50:00,
2013-02-13 03:55:00,32.2,29.6,30.27,West,273,0.0,0.0,90,0.00,,SKC,0.00,VWS V14.01,2013-02-13 11:55:00,
2013-02-13 04:00:00,32.2,29.6,30.27,West,273,0.0,0.0,90,0.00,,SKC,0.00,VWS V14.01,2013-02-13 12:00:00,
2013-02-13 04:05:00,32.4,29.8,30.27,West,273,0.0,0.0,90,0.00,,SKC,0.00,VWS V14.01,2013-02-13 12:05:00,
2013-02-13 04:10:00,32.4,29.8,30.27,West,273,0.0,0.0,90,0.00,,SKC,0.00,VWS V14.01,2013-02-13 12:10:00,
2013-02-13 04:15:00,32.4,30.1,30.27,West,273,0.0,0.0,91,0.00,,SKC,0.00,VWS V14.01,2013-02-13 12:15:00,
2013-02-13 04:21:00,32.4,29.8,30.27,West,273,0.0,0.0,90,0.00,,SKC,0.00,VWS V14.01,2013-02-13 12:21:00,
2013-02-13 04:26:00,32.2,29.6,30.27,West,273,0.0,0.0,90,0.00,,SKC,0.00,VWS V14.01,2013-02-13 12:26:00,
2013-02-13 04:30:00,31.6,29.3,30.29,West,273,0.0,0.0,91,0.00,,SKC,0.00,VWS V14.01,2013-02-13 12:30:00,
2013-02-13 04:31:00,32.2,29.6,30.27,West,273,0.0,0.0,90,0.00,,SKC,0.00,VWS V14.01,2013-02-13 12:31:00,
2013-02-13 04:36:00,32.2,29.6,30.27,West,273,0.0,0.0,90,0.00,,SKC,0.00,VWS V14.01,2013-02-13 12:36:00,
2013-02-13 04:41:00,31.9,29.3,30.27,West,273,0.0,0.0,90,0.00,,SKC,0.00,VWS V14.01,2013-02-13 12:41:00,
2013-02-13 04:46:00,31.8,29.2,30.27,West,273,0.0,0.0,90,0.00,,SKC,0.00,VWS V14.01,2013-02-13 12:46:00,
2013-02-13 04:51:00,31.8,29.5,30.27,West,273,0.0,0.0,91,0.00,,SKC,0.00,VWS V14.01,2013-02-13 12:51:00,
2013-02-13 04:56:00,31.8,29.2,30.27,West,273,0.0,0.0,90,0.00,,SKC,0.00,VWS V14.01,2013-02-13 12:56:00,
2013-02-13 05:00:00,31.2,28.6,30.29,West,273,0.0,0.0,90,0.00,,SKC,0.00,VWS V14.01,2013-02-13 13:00:00,
2013-02-13 05:01:00,31.8,29.5,30.27,West,273,0.0,0.0,91,0.00,,SKC,0.00,VWS V14.01,2013-02-13 13:01:00,
2013-02-13 05:06:00,31.8,29.5,30.27,West,273,0.0,0.0,91,0.00,,SKC,0.00,VWS V14.01,2013-02-13 13:06:00,
2013-02-13 05:11:00,31.9,29.6,30.27,West,273,0.0,0.0,91,0.00,,SKC,0.00,VWS V14.01,2013-02-13 13:11:00,
2013-02-13 05:16:00,31.8,29.2,30.29,West,273,0.0,0.0,90,0.00,,SKC,0.00,VWS V14.01,2013-02-13 13:16:00,
2013-02-13 05:21:00,31.6,29.3,30.29,West,273,0.0,0.0,91,0.00,,SKC,0.00,VWS V14.01,2013-02-13 13:21:00,
2013-02-13 05:26:00,31.6,29.3,30.29,West,273,0.0,0.0,91,0.00,,SKC,0.00,VWS V14.01,2013-02-13 13:26:00,
2013-02-13 05:30:00,30.7,28.4,30.31,West,273,0.0,0.0,91,0.00,,SKC,0.00,VWS V14.01,2013-02-13 13:30:00,
2013-02-13 05:31:00,31.6,29.3,30.29,West,273,0.0,0.0,91,0.00,,SKC,0.00,VWS V14.01,2013-02-13 13:31:00,
2013-02-13 05:36:00,31.5,28.9,30.29,West,273,0.0,0.0,90,0.00,,SKC,0.00,VWS V14.01,2013-02-13 13:36:00,
2013-02-13 05:41:00,31.3,28.7,30.29,West,273,0.0,0.0,90,0.00,,SKC,0.00,VWS V14.01,2013-02-13 13:41:00,
2013-02-13 05:46:00,31.3,28.7,30.29,West,273,0.0,0.0,90,0.00,,SKC,0.00,VWS V14.01,2013-02-13 13:46:00,
2013-02-13 05:51:00,31.2,28.6,30.29,West,273,0.0,0.0,90,0.00,,SKC,0.00,VWS V14.01,2013-02-13 13:51:00,
2013-02-13 05:56:00,31.2,28.6,30.29,West,273,0.0,0.0,90,0.00,,SKC,0.00,VWS V14.01,2013-02-13 13:56:00,
2013-02-13 06:00:00,30.6,28.3,30.31,West,273,0.0,0.0,91,0.00,,SKC,0.00,VWS V14.01,2013-02-13 14:00:00,
2013-02-13 06:02:00,31.0,28.7,30.29,West,273,0.0,0.0,91,0.00,,SKC,0.00,VWS V14.01,2013-02-13 14:02:00,
2013-02-13 06:07:00,31.0,28.7,30.29,West,273,0.0,0.0,91,0.00,,SKC,0.00,VWS V14.01,2013-02-13 14:07:00,
2013-02-13 06:12:00,31.0,28.7,30.29,West,273,0.0,0.0,91,0.00,,SKC,0.00,VWS V14.01,2013-02-13 14:12:00,
2013-02-13 06:17:00,30.9,28.3,30.31,West,273,0.0,0.0,90,0.00,,SKC,0.00,VWS V14.01,2013-02-13 14:17:00,
2013-02-13 06:22:00,30.7,28.1,30.31,West,273,0.0,0.0,90,0.00,,SKC,0.00,VWS V14.01,2013-02-13 14:22:00,
2013-02-13 06:27:00,30.7,28.1,30.31,West,273,0.0,0.0,90,0.00,,SKC,0.00,VWS V14.01,2013-02-13 14:27:00,
2013-02-13 06:30:00,30.9,28.6,30.32,West,273,0.0,0.0,91,0.00,,SKC,0.00,VWS V14.01,2013-02-13 14:30:00,
2013-02-13 06:32:00,30.7,28.4,30.31,West,273,0.0,0.0,91,0.00,,SKC,0.00,VWS V14.01,2013-02-13 14:32:00,
2013-02-13 06:37:00,30.7,28.4,30.31,West,273,0.0,0.0,91,0.00,,SKC,0.00,VWS V14.01,2013-02-13 14:37:00,
2013-02-13 06:42:00,30.9,28.6,30.31,West,273,0.0,0.0,91,0.00,,SKC,0.00,VWS V14.01,2013-02-13 14:42:00,
2013-02-13 06:47:00,30.7,28.1,30.31,West,273,0.0,0.0,90,0.00,,SKC,0.00,VWS V14.01,2013-02-13 14:47:00,
2013-02-13 06:52:00,30.7,28.1,30.31,West,273,0.0,0.0,90,0.00,,SKC,0.00,VWS V14.01,2013-02-13 14:52:00,
2013-02-13 06:57:00,30.6,28.0,30.31,West,273,0.0,0.0,90,0.00,,SKC,0.00,VWS V14.01,2013-02-13 14:57:00,
2013-02-13 07:00:00,34.0,31.6,30.31,West,273,0.0,0.0,91,0.00,,SKC,0.00,VWS V14.01,2013-02-13 15:00:00,
2013-02-13 07:02:00,30.6,28.3,30.31,West,273,0.0,0.0,91,0.00,,SKC,0.00,VWS V14.01,2013-02-13 15:02:00,
2013-02-13 07:07:00,30.7,28.4,30.31,West,273,0.0,0.0,91,0.00,,SKC,0.00,VWS V14.01,2013-02-13 15:07:00,
2013-02-13 07:12:00,30.7,28.4,30.31,West,273,0.0,0.0,91,0.00,,SKC,0.00,VWS V14.01,2013-02-13 15:12:00,
2013-02-13 07:17:00,30.7,28.4,30.32,West,273,0.0,0.0,91,0.00,,SKC,0.00,VWS V14.01,2013-02-13 15:17:00,
2013-02-13 07:23:00,30.7,28.4,30.32,West,273,0.0,0.0,91,0.00,,SKC,0.00,VWS V14.01,2013-02-13 15:23:00,
2013-02-13 07:28:00,30.9,28.6,30.32,West,273,0.0,0.0,91,0.00,,SKC,0.00,VWS V14.01,2013-02-13 15:28:00,
2013-02-13 07:30:00,37.8,33.1,30.30,West,273,0.0,0.0,83,0.00,,SKC,0.00,VWS V14.01,2013-02-13 15:30:00,
2013-02-13 07:33:00,31.0,28.7,30.32,West,273,0.0,0.0,91,0.00,,SKC,0.00,VWS V14.01,2013-02-13 15:33:00,
2013-02-13 07:38:00,31.3,29.0,30.32,West,273,0.0,0.0,91,0.00,,SKC,0.00,VWS V14.01,2013-02-13 15:38:00,
2013-02-13 07:43:00,31.6,29.3,30.32,West,273,0.0,0.0,91,0.00,,SKC,0.00,VWS V14.01,2013-02-13 15:43:00,
2013-02-13 07:48:00,32.1,29.8,30.32,West,273,0.0,0.0,91,0.00,,SKC,0.00,VWS V14.01,2013-02-13 15:48:00,
2013-02-13 07:53:00,33.1,31.0,30.32,West,273,0.0,0.0,92,0.00,,SKC,0.00,VWS V14.01,2013-02-13 15:53:00,
2013-02-13 07:58:00,33.8,31.7,30.32,West,273,0.0,0.0,92,0.00,,SKC,0.00,VWS V14.01,2013-02-13 15:58:00,
2013-02-13 08:00:00,40.8,33.8,30.29,West,273,0.0,0.0,76,0.00,,SKC,0.00,VWS V14.01,2013-02-13 16:00:00,
2013-02-13 08:03:00,34.9,32.8,30.31,West,273,0.0,0.0,92,0.00,,SKC,0.00,VWS V14.01,2013-02-13 16:03:00,
2013-02-13 08:08:00,36.0,33.4,30.31,West,273,0.0,0.0,90,0.00,,SKC,0.00,VWS V14.01,2013-02-13 16:08:00,
2013-02-13 08:13:00,36.9,34.0,30.31,West,273,0.0,0.0,89,0.00,,SKC,0.00,VWS V14.01,2013-02-13 16:13:00,
2013-02-13 08:18:00,37.3,33.8,30.31,West,273,0.0,0.0,87,0.00,,SKC,0.00,VWS V14.01,2013-02-13 16:18:00,
2013-02-13 08:23:00,38.2,34.1,30.31,West,273,0.0,0.0,85,0.00,,SKC,0.00,VWS V14.01,2013-02-13 16:23:00,
2013-02-13 08:28:00,37.8,33.1,30.31,West,273,0.0,0.0,83,0.00,,SKC,0.00,VWS V14.01,2013-02-13 16:28:00,
2013-02-13 08:30:00,44.9,33.9,30.28,West,273,0.0,1.0,65,0.00,,SKC,0.00,VWS V14.01,2013-02-13 16:30:00,
2013-02-13 08:33:00,38.2,33.8,30.30,West,273,0.0,0.0,84,0.00,,SKC,0.00,VWS V14.01,2013-02-13 16:33:00,
2013-02-13 08:38:00,38.9,34.2,30.30,West,273,0.0,0.0,83,0.00,,SKC,0.00,VWS V14.01,2013-02-13 16:38:00,
2013-02-13 08:43:00,39.2,33.9,30.30,West,273,0.0,0.0,81,0.00,,SKC,0.00,VWS V14.01,2013-02-13 16:43:00,
2013-02-13 08:49:00,39.5,33.5,30.30,West,273,0.0,0.0,79,0.00,,SKC,0.00,VWS V14.01,2013-02-13 16:49:00,
2013-02-13 08:54:00,40.1,33.8,30.30,West,273,0.0,0.0,78,0.00,,SKC,0.00,VWS V14.01,2013-02-13 16:54:00,
2013-02-13 08:59:00,40.8,34.2,30.29,West,273,0.0,0.0,77,0.00,,SKC,0.00,VWS V14.01,2013-02-13 16:59:00,
2013-02-13 09:00:00,49.1,35.4,30.28,WNW,302,0.0,4.0,59,0.00,,SKC,0.00,VWS V14.01,2013-02-13 17:00:00,
2013-02-13 09:04:00,41.5,34.2,30.29,West,273,0.0,0.0,75,0.00,,SKC,0.00,VWS V14.01,2013-02-13 17:04:00,
2013-02-13 09:09:00,42.2,34.2,30.29,West,273,0.0,0.0,73,0.00,,SKC,0.00,VWS V14.01,2013-02-13 17:09:00,
2013-02-13 09:14:00,43.1,34.7,30.28,West,273,0.0,0.0,72,0.00,,SKC,0.00,VWS V14.01,2013-02-13 17:14:00,
2013-02-13 09:19:00,43.5,33.7,30.28,West,273,0.0,0.0,68,0.00,,SKC,0.00,VWS V14.01,2013-02-13 17:19:00,
2013-02-13 09:24:00,44.2,33.6,30.28,West,273,0.0,1.0,66,0.00,,SKC,0.00,VWS V14.01,2013-02-13 17:24:00,
2013-02-13 09:29:00,44.9,33.9,30.28,West,273,0.0,1.0,65,0.00,,SKC,0.00,VWS V14.01,2013-02-13 17:29:00,
2013-02-13 09:30:00,51.1,33.6,30.28,WSW,250,0.0,3.0,51,0.00,,SKC,0.00,VWS V14.01,2013-02-13 17:30:00,
2013-02-13 09:34:00,46.1,34.6,30.28,West,273,0.0,0.0,64,0.00,,SKC,0.00,VWS V14.01,2013-02-13 17:34:00,
2013-02-13 09:39:00,46.8,34.5,30.28,West,273,0.0,0.0,62,0.00,,SKC,0.00,VWS V14.01,2013-02-13 17:39:00,
2013-02-13 09:44:00,47.9,35.5,30.28,West,273,0.0,1.0,62,0.00,,SKC,0.00,VWS V14.01,2013-02-13 17:44:00,
2013-02-13 09:49:00,48.3,35.9,30.28,West,273,0.0,1.0,62,0.00,,SKC,0.00,VWS V14.01,2013-02-13 17:49:00,
2013-02-13 09:54:00,48.6,34.9,30.28,NW,310,4.0,4.0,59,0.00,,SKC,0.00,VWS V14.01,2013-02-13 17:54:00,
2013-02-13 10:00:00,49.1,35.4,30.28,WNW,302,0.0,4.0,59,0.00,,SKC,0.00,VWS V14.01,2013-02-13 18:00:00,
2013-02-13 10:05:00,49.4,34.8,30.28,NW,309,0.0,2.0,57,0.00,,SKC,0.00,VWS V14.01,2013-02-13 18:05:00,
2013-02-13 10:10:00,49.8,35.2,30.28,NW,309,0.0,2.0,57,0.00,,SKC,0.00,VWS V14.01,2013-02-13 18:10:00,
2013-02-13 10:15:00,49.9,33.9,30.28,NW,306,0.0,2.0,54,0.00,,SKC,0.00,VWS V14.01,2013-02-13 18:15:00,
2013-02-13 10:20:00,50.1,33.7,30.28,NW,319,0.0,2.0,53,0.00,,SKC,0.00,VWS V14.01,2013-02-13 18:20:00,
2013-02-13 10:25:00,50.7,34.2,30.28,West,277,1.0,3.0,53,0.00,,SKC,0.00,VWS V14.01,2013-02-13 18:25:00,
2013-02-13 10:30:00,51.1,33.6,30.28,WSW,250,0.0,0.0,51,0.00,,SKC,0.00,VWS V14.01,2013-02-13 18:30:00,
2013-02-13 10:35:00,51.6,34.1,30.28,NW,307,0.0,3.0,51,0.00,,SKC,0.00,VWS V14.01,2013-02-13 18:35:00,
2013-02-13 10:40:00,51.9,34.4,30.28,NW,307,0.0,3.0,51,0.00,,SKC,0.00,VWS V14.01,2013-02-13 18:40:00,
2013-02-13 10:45:00,52.0,34.0,30.27,NW,306,0.0,5.0,50,0.00,,SKC,0.00,VWS V14.01,2013-02-13 18:45:00,
2013-02-13 10:50:00,52.2,34.6,30.27,NW,306,0.0,5.0,51,0.00,,SKC,0.00,VWS V14.01,2013-02-13 18:50:00,
2013-02-13 10:55:00,52.6,35.0,30.27,West,259,0.0,5.0,51,0.00,,SKC,0.00,VWS V14.01,2013-02-13 18:55:00,
2013-02-13 11:00:00,52.8,34.2,30.27,WSW,255,0.0,1.0,49,0.00,,SKC,0.00,VWS V14.01,2013-02-13 19:00:00,
2013-02-13 11:05:00,52.9,33.8,30.27,West,266,1.0,3.0,48,0.00,,SKC,0.00,VWS V14.01,2013-02-13 19:05:00,
2013-02-13 11:10:00,53.5,34.8,30.27,South,174,0.0,3.0,49,0.00,,SKC,0.00,VWS V14.01,2013-02-13 19:10:00,
2013-02-13 11:15:00,53.9,33.6,30.27,SW,222,0.0,4.0,46,0.00,,SKC,0.00,VWS V14.01,2013-02-13 19:15:00,
2013-02-13 11:20:00,54.2,33.3,30.27,SW,222,0.0,4.0,45,0.00,,SKC,0.00,VWS V14.01,2013-02-13 19:20:00,
2013-02-13 11:25:00,54.1,34.3,30.27,SW,228,0.0,4.0,47,0.00,,SKC,0.00,VWS V14.01,2013-02-13 19:25:00,
2013-02-13 11:30:00,54.7,33.8,30.26,SSW,211,1.0,4.0,45,0.00,,SKC,0.00,VWS V14.01,2013-02-13 19:30:00,
2013-02-13 11:36:00,55.0,33.5,30.26,SW,227,0.0,4.0,44,0.00,,SKC,0.00,VWS V14.01,2013-02-13 19:36:00,
2013-02-13 11:41:00,55.6,34.6,30.26,WSW,240,0.0,4.0,45,0.00,,SKC,0.00,VWS V14.01,2013-02-13 19:41:00,
2013-02-13 11:46:00,55.6,34.0,30.25,WSW,240,0.0,4.0,44,0.00,,SKC,0.00,VWS V14.01,2013-02-13 19:46:00,
2013-02-13 11:51:00,55.7,34.7,30.25,WSW,240,2.0,4.0,45,0.00,,SKC,0.00,VWS V14.01,2013-02-13 19:51:00,
2013-02-13 11:56:00,56.5,33.7,30.25,SSE,157,0.0,4.0,42,0.00,,SKC,0.00,VWS V14.01,2013-02-13 19:56:00,
2013-02-13 12:00:00,58.3,36.5,30.21,SW,234,0.0,7.0,44,0.00,,SKC,0.00,VWS V14.01,2013-02-13 20:00:00,
2013-02-13 12:01:00,56.7,35.6,30.24,ESE,123,0.0,5.0,45,0.00,,SKC,0.00,VWS V14.01,2013-02-13 20:01:00,
2013-02-13 12:06:00,57.0,35.9,30.24,ESE,123,0.0,5.0,45,0.00,,SKC,0.00,VWS V14.01,2013-02-13 20:06:00,
2013-02-13 12:11:00,57.6,36.4,30.24,SE,128,0.0,5.0,45,0.00,,SKC,0.00,VWS V14.01,2013-02-13 20:11:00,
2013-02-13 12:16:00,57.5,36.3,30.23,SSE,160,1.0,5.0,45,0.00,,SKC,0.00,VWS V14.01,2013-02-13 20:16:00,
2013-02-13 12:21:00,57.0,35.9,30.23,ESE,116,0.0,5.0,45,0.00,,SKC,0.00,VWS V14.01,2013-02-13 20:21:00,
2013-02-13 12:26:00,57.3,36.7,30.23,SE,125,1.0,5.0,46,0.00,,SKC,0.00,VWS V14.01,2013-02-13 20:26:00,
2013-02-13 12:30:00,58.9,37.0,30.20,WSW,252,0.0,6.0,44,0.00,,SKC,0.00,VWS V14.01,2013-02-13 20:30:00,
2013-02-13 12:31:00,58.0,36.8,30.22,ESE,117,0.0,1.0,45,0.00,,SKC,0.00,VWS V14.01,2013-02-13 20:31:00,
2013-02-13 12:36:00,58.6,36.8,30.22,SSE,155,0.0,1.0,44,0.00,,SKC,0.00,VWS V14.01,2013-02-13 20:36:00,
2013-02-13 12:41:00,58.9,35.9,30.22,SSE,163,0.0,5.0,42,0.00,,SKC,0.00,VWS V14.01,2013-02-13 20:41:00,
2013-02-13 12:46:00,58.4,36.0,30.21,SSW,209,3.0,7.0,43,0.00,,SKC,0.00,VWS V14.01,2013-02-13 20:46:00,
2013-02-13 12:51:00,58.1,36.9,30.21,South,169,0.0,7.0,45,0.00,,SKC,0.00,VWS V14.01,2013-02-13 20:51:00,
2013-02-13 12:56:00,58.4,37.2,30.21,SE,134,3.0,7.0,45,0.00,,SKC,0.00,VWS V14.01,2013-02-13 20:56:00,
2013-02-13 13:00:00,58.6,36.8,30.19,NW,315,3.0,5.0,44,0.00,,SKC,0.00,VWS V14.01,2013-02-13 21:00:00,
2013-02-13 13:02:00,58.1,36.3,30.21,WSW,241,2.0,5.0,44,0.00,,SKC,0.00,VWS V14.01,2013-02-13 21:02:00,
2013-02-13 13:07:00,58.0,36.8,30.21,SW,236,0.0,5.0,45,0.00,,SKC,0.00,VWS V14.01,2013-02-13 21:07:00,
2013-02-13 13:12:00,58.1,37.5,30.21,SW,221,0.0,5.0,46,0.00,,SKC,0.00,VWS V14.01,2013-02-13 21:12:00,
2013-02-13 13:17:00,58.4,37.2,30.21,SSE,150,0.0,5.0,45,0.00,,SKC,0.00,VWS V14.01,2013-02-13 21:17:00,
2013-02-13 13:22:00,58.7,36.9,30.21,South,186,1.0,6.0,44,0.00,,SKC,0.00,VWS V14.01,2013-02-13 21:22:00,
2013-02-13 13:27:00,58.9,37.0,30.21,West,273,0.0,6.0,44,0.00,,SKC,0.00,VWS V14.01,2013-02-13 21:27:00,
2013-02-13 13:30:00,57.8,37.7,30.19,NW,309,2.0,9.0,47,0.00,,SKC,0.00,VWS V14.01,2013-02-13 21:30:00,
2013-02-13 13:32:00,58.9,36.5,30.20,WSW,252,0.0,1.0,43,0.00,,SKC,0.00,VWS V14.01,2013-02-13 21:32:00,
2013-02-13 13:37:00,58.3,35.9,30.20,SSE,162,3.0,5.0,43,0.00,,SKC,0.00,VWS V14.01,2013-02-13 21:37:00,
2013-02-13 13:42:00,58.0,37.4,30.20,WSW,252,0.0,5.0,46,0.00,,SKC,0.00,VWS V14.01,2013-02-13 21:42:00,
2013-02-13 13:47:00,58.3,37.1,30.19,NW,311,0.0,5.0,45,0.00,,SKC,0.00,VWS V14.01,2013-02-13 21:47:00,
2013-02-13 13:52:00,58.3,37.6,30.19,SW,220,0.0,5.0,46,0.00,,SKC,0.00,VWS V14.01,2013-02-13 21:52:00,
2013-02-13 13:57:00,58.6,37.9,30.19,SW,220,1.0,5.0,46,0.00,,SKC,0.00,VWS V14.01,2013-02-13 21:57:00,
2013-02-13 14:00:00,57.8,38.3,30.18,WNW,284,0.0,5.0,48,0.00,,SKC,0.00,VWS V14.01,2013-02-13 22:00:00,
2013-02-13 14:02:00,58.4,37.2,30.19,NW,311,2.0,5.0,45,0.00,,SKC,0.00,VWS V14.01,2013-02-13 22:02:00,
2013-02-13 14:07:00,58.0,37.4,30.19,NW,320,3.0,9.0,46,0.00,,SKC,0.00,VWS V14.01,2013-02-13 22:07:00,
2013-02-13 14:12:00,57.3,37.8,30.19,West,267,3.0,9.0,48,0.00,,SKC,0.00,VWS V14.01,2013-02-13 22:12:00,
2013-02-13 14:17:00,57.2,37.7,30.19,WSW,248,0.0,9.0,48,0.00,,SKC,0.00,VWS V14.01,2013-02-13 22:17:00,
2013-02-13 14:23:00,57.6,37.5,30.19,WSW,252,1.0,9.0,47,0.00,,SKC,0.00,VWS V14.01,2013-02-13 22:23:00,
2013-02-13 14:28:00,57.6,38.6,30.19,WNW,298,0.0,9.0,49,0.00,,SKC,0.00,VWS V14.01,2013-02-13 22:28:00,
2013-02-13 14:30:00,57.3,38.3,30.19,West,279,0.0,4.0,49,0.00,,SKC,0.00,VWS V14.01,2013-02-13 22:30:00,
2013-02-13 14:33:00,57.6,37.5,30.19,WNW,302,0.0,3.0,47,0.00,,SKC,0.00,VWS V14.01,2013-02-13 22:33:00,
2013-02-13 14:38:00,57.5,38.0,30.19,NW,321,0.0,5.0,48,0.00,,SKC,0.00,VWS V14.01,2013-02-13 22:38:00,
2013-02-13 14:43:00,57.5,38.0,30.19,NNW,333,1.0,5.0,48,0.00,,SKC,0.00,VWS V14.01,2013-02-13 22:43:00,
2013-02-13 14:48:00,57.5,37.5,30.18,SW,222,0.0,5.0,47,0.00,,SKC,0.00,VWS V14.01,2013-02-13 22:48:00,
2013-02-13 14:53:00,57.6,38.1,30.18,SW,225,2.0,5.0,48,0.00,,SKC,0.00,VWS V14.01,2013-02-13 22:53:00,
2013-02-13 14:58:00,57.8,37.7,30.18,WNW,284,0.0,5.0,47,0.00,,SKC,0.00,VWS V14.01,2013-02-13 22:58:00,
2013-02-13 15:00:00,56.6,38.7,30.19,NW,321,0.0,4.0,51,0.00,,SKC,0.00,VWS V14.01,2013-02-13 23:00:00,
2013-02-13 15:03:00,57.8,38.3,30.18,WSW,246,3.0,3.0,48,0.00,,SKC,0.00,VWS V14.01,2013-02-13 23:03:00,
2013-02-13 15:08:00,58.0,37.9,30.18,SW,226,0.0,4.0,47,0.00,,SKC,0.00,VWS V14.01,2013-02-13 23:08:00,
2013-02-13 15:13:00,58.3,38.7,30.18,SW,230,0.0,4.0,48,0.00,,SKC,0.00,VWS V14.01,2013-02-13 23:13:00,
2013-02-13 15:18:00,58.3,39.2,30.18,SW,230,0.0,4.0,49,0.00,,SKC,0.00,VWS V14.01,2013-02-13 23:18:00,
2013-02-13 15:23:00,58.0,38.4,30.18,SW,230,2.0,4.0,48,0.00,,SKC,0.00,VWS V14.01,2013-02-13 23:23:00,
2013-02-13 15:28:00,57.5,38.5,30.18,West,279,0.0,4.0,49,0.00,,SKC,0.00,VWS V14.01,2013-02-13 23:28:00,
2013-02-13 15:30:00,56.6,39.2,30.18,WNW,300,0.0,4.0,52,0.00,,SKC,0.00,VWS V14.01,2013-02-13 23:30:00,
2013-02-13 15:33:00,57.3,38.3,30.19,West,279,0.0,3.0,49,0.00,,SKC,0.00,VWS V14.01,2013-02-13 23:33:00,
2013-02-13 15:39:00,57.2,38.2,30.19,NW,309,0.0,4.0,49,0.00,,SKC,0.00,VWS V14.01,2013-02-13 23:39:00,
2013-02-13 15:44:00,56.9,38.5,30.19,West,270,0.0,4.0,50,0.00,,SKC,0.00,VWS V14.01,2013-02-13 23:44:00,
2013-02-13 15:49:00,56.7,38.3,30.19,NW,323,0.0,4.0,50,0.00,,SKC,0.00,VWS V14.01,2013-02-13 23:49:00,
2013-02-13 15:54:00,56.6,38.2,30.19,NW,321,2.0,4.0,50,0.00,,SKC,0.00,VWS V14.01,2013-02-13 23:54:00,
2013-02-13 15:59:00,56.6,38.2,30.19,NW,321,0.0,4.0,50,0.00,,SKC,0.00,VWS V14.01,2013-02-13 23:59:00,
2013-02-13 16:00:00,54.2,38.9,30.19,WNW,290,0.0,3.0,56,0.00,,SKC,0.00,VWS V14.01,2013-02-14 00:00:00,
2013-02-13 16:04:00,56.6,38.2,30.19,West,269,0.0,1.0,50,0.00,,SKC,0.00,VWS V14.01,2013-02-14 00:04:00,
2013-02-13 16:09:00,56.6,38.7,30.19,WNW,300,0.0,4.0,51,0.00,,SKC,0.00,VWS V14.01,2013-02-14 00:09:00,
2013-02-13 16:14:00,56.9,38.5,30.19,WNW,300,0.0,4.0,50,0.00,,SKC,0.00,VWS V14.01,2013-02-14 00:14:00,
2013-02-13 16:19:00,56.7,38.8,30.19,WNW,300,0.0,4.0,51,0.00,,SKC,0.00,VWS V14.01,2013-02-14 00:19:00,
2013-02-13 16:24:00,56.7,38.8,30.19,WNW,300,0.0,4.0,51,0.00,,SKC,0.00,VWS V14.01,2013-02-14 00:24:00,
2013-02-13 16:29:00,56.6,39.2,30.18,WNW,300,0.0,4.0,52,0.00,,SKC,0.00,VWS V14.01,2013-02-14 00:29:00,
2013-02-13 16:30:00,52.3,38.8,30.20,WNW,290,0.0,2.0,60,0.00,,SKC,0.00,VWS V14.01,2013-02-14 00:30:00,
2013-02-13 16:35:00,56.2,39.3,30.18,WNW,300,0.0,0.0,53,0.00,,SKC,0.00,VWS V14.01,2013-02-14 00:35:00,
2013-02-13 16:40:00,55.9,39.0,30.18,WNW,300,0.0,0.0,53,0.00,,SKC,0.00,VWS V14.01,2013-02-14 00:40:00,
2013-02-13 16:45:00,55.3,38.5,30.19,WNW,290,0.0,2.0,53,0.00,,SKC,0.00,VWS V14.01,2013-02-14 00:45:00,
2013-02-13 16:50:00,54.8,39.0,30.19,WNW,290,0.0,3.0,55,0.00,,SKC,0.00,VWS V14.01,2013-02-14 00:50:00,
2013-02-13 16:55:00,54.5,38.7,30.19,WNW,290,1.0,3.0,55,0.00,,SKC,0.00,VWS V14.01,2013-02-14 00:55:00,
2013-02-13 17:00:00,54.2,38.9,30.19,WNW,290,0.0,0.0,56,0.00,,SKC,0.00,VWS V14.01,2013-02-14 01:00:00,
2013-02-13 17:05:00,53.9,38.6,30.19,WNW,290,0.0,0.0,56,0.00,,SKC,0.00,VWS V14.01,2013-02-14 01:05:00,
2013-02-13 17:10:00,53.5,38.2,30.19,WNW,290,1.0,2.0,56,0.00,,SKC,0.00,VWS V14.01,2013-02-14 01:10:00,
2013-02-13 17:15:00,53.3,38.5,30.19,WNW,290,0.0,2.0,57,0.00,,SKC,0.00,VWS V14.01,2013-02-14 01:15:00,
2013-02-13 17:21:00,53.1,39.2,30.19,WNW,290,0.0,2.0,59,0.00,,SKC,0.00,VWS V14.01,2013-02-14 01:21:00,
2013-02-13 17:26:00,52.8,39.3,30.19,WNW,290,0.0,2.0,60,0.00,,SKC,0.00,VWS V14.01,2013-02-14 01:26:00,
2013-02-13 17:30:00,46.8,38.6,30.22,WNW,290,0.0,0.0,73,0.00,,SKC,0.00,VWS V14.01,2013-02-14 01:30:00,
2013-02-13 17:31:00,52.3,38.8,30.20,WNW,290,0.0,0.0,60,0.00,,SKC,0.00,VWS V14.01,2013-02-14 01:31:00,
2013-02-13 17:36:00,52.0,38.1,30.20,WNW,290,0.0,0.0,59,0.00,,SKC,0.00,VWS V14.01,2013-02-14 01:36:00,
2013-02-13 17:41:00,51.6,38.2,30.20,WNW,290,0.0,0.0,60,0.00,,SKC,0.00,VWS V14.01,2013-02-14 01:41:00,
2013-02-13 17:46:00,51.1,38.5,30.20,WNW,290,0.0,0.0,62,0.00,,SKC,0.00,VWS V14.01,2013-02-14 01:46:00,
2013-02-13 17:51:00,50.8,38.3,30.20,WNW,290,0.0,0.0,62,0.00,,SKC,0.00,VWS V14.01,2013-02-14 01:51:00,
2013-02-13 17:56:00,50.4,38.7,30.20,WNW,290,0.0,0.0,64,0.00,,SKC,0.00,VWS V14.01,2013-02-14 01:56:00,
2013-02-13 18:00:00,44.9,37.8,30.22,WNW,290,0.0,0.0,76,0.00,,SKC,0.00,VWS V14.01,2013-02-14 02:00:00,
2013-02-13 18:01:00,49.8,38.9,30.21,WNW,290,0.0,0.0,66,0.00,,SKC,0.00,VWS V14.01,2013-02-14 02:01:00,
2013-02-13 18:06:00,49.1,39.0,30.21,WNW,290,0.0,0.0,68,0.00,,SKC,0.00,VWS V14.01,2013-02-14 02:06:00,
2013-02-13 18:11:00,48.5,38.4,30.21,WNW,290,0.0,0.0,68,0.00,,SKC,0.00,VWS V14.01,2013-02-14 02:11:00,
2013-02-13 18:16:00,48.0,39.1,30.21,WNW,290,0.0,0.0,71,0.00,,SKC,0.00,VWS V14.01,2013-02-14 02:16:00,
2013-02-13 18:22:00,47.6,38.7,30.21,WNW,290,0.0,0.0,71,0.00,,SKC,0.00,VWS V14.01,2013-02-14 02:22:00,
2013-02-13 18:27:00,47.0,38.5,30.21,WNW,290,0.0,0.0,72,0.00,,SKC,0.00,VWS V14.01,2013-02-14 02:27:00,
2013-02-13 18:30:00,42.9,37.2,30.22,WNW,290,0.0,2.0,80,0.00,,SKC,0.00,VWS V14.01,2013-02-14 02:30:00,
2013-02-13 18:32:00,46.7,38.5,30.22,WNW,290,0.0,0.0,73,0.00,,SKC,0.00,VWS V14.01,2013-02-14 02:32:00,
2013-02-13 18:37:00,46.4,38.6,30.22,WNW,290,0.0,0.0,74,0.00,,SKC,0.00,VWS V14.01,2013-02-14 02:37:00,
2013-02-13 18:42:00,46.1,38.3,30.22,WNW,290,0.0,0.0,74,0.00,,SKC,0.00,VWS V14.01,2013-02-14 02:42:00,
2013-02-13 18:47:00,45.7,38.2,30.22,WNW,290,0.0,0.0,75,0.00,,SKC,0.00,VWS V14.01,2013-02-14 02:47:00,
2013-02-13 18:52:00,45.2,38.1,30.22,WNW,290,0.0,0.0,76,0.00,,SKC,0.00,VWS V14.01,2013-02-14 02:52:00,
2013-02-13 18:57:00,45.1,38.0,30.22,WNW,290,0.0,0.0,76,0.00,,SKC,0.00,VWS V14.01,2013-02-14 02:57:00,
2013-02-13 19:00:00,41.8,36.4,30.23,WNW,290,0.0,0.0,81,0.00,,SKC,0.00,VWS V14.01,2013-02-14 03:00:00,
2013-02-13 19:02:00,44.8,38.0,30.22,WNW,290,0.0,0.0,77,0.00,,SKC,0.00,VWS V14.01,2013-02-14 03:02:00,
2013-02-13 19:07:00,44.3,37.6,30.22,WNW,290,0.0,0.0,77,0.00,,SKC,0.00,VWS V14.01,2013-02-14 03:07:00,
2013-02-13 19:12:00,44.1,37.7,30.22,WNW,290,0.0,0.0,78,0.00,,SKC,0.00,VWS V14.01,2013-02-14 03:12:00,
2013-02-13 19:17:00,43.6,37.5,30.22,WNW,290,0.0,0.0,79,0.00,,SKC,0.00,VWS V14.01,2013-02-14 03:17:00,
2013-02-13 19:22:00,43.2,37.5,30.22,WNW,290,0.0,2.0,80,0.00,,SKC,0.00,VWS V14.01,2013-02-14 03:22:00,
2013-02-13 19:28:00,43.1,37.4,30.22,WNW,290,0.0,2.0,80,0.00,,SKC,0.00,VWS V14.01,2013-02-14 03:28:00,
2013-02-13 19:30:00,41.1,36.6,30.22,WNW,290,0.0,0.0,84,0.00,,SKC,0.00,VWS V14.01,2013-02-14 03:30:00,
2013-02-13 19:33:00,42.9,37.2,30.22,WNW,290,0.0,0.0,80,0.00,,SKC,0.00,VWS V14.01,2013-02-14 03:33:00,
2013-02-13 19:38:00,42.8,37.1,30.22,WNW,290,0.0,0.0,80,0.00,,SKC,0.00,VWS V14.01,2013-02-14 03:38:00,
2013-02-13 19:43:00,42.5,36.8,30.22,WNW,290,0.0,0.0,80,0.00,,SKC,0.00,VWS V14.01,2013-02-14 03:43:00,
2013-02-13 19:48:00,42.2,36.8,30.23,WNW,290,0.0,0.0,81,0.00,,SKC,0.00,VWS V14.01,2013-02-14 03:48:00,
2013-02-13 19:53:00,42.1,36.7,30.23,WNW,290,0.0,0.0,81,0.00,,SKC,0.00,VWS V14.01,2013-02-14 03:53:00,
2013-02-13 19:58:00,41.8,36.4,30.23,WNW,290,0.0,0.0,81,0.00,,SKC,0.00,VWS V14.01,2013-02-14 03:58:00,
2013-02-13 20:00:00,40.2,36.1,30.21,WNW,290,0.0,0.0,85,0.00,,SKC,0.00,VWS V14.01,2013-02-14 04:00:00,
2013-02-13 20:03:00,41.6,36.5,30.23,WNW,290,0.0,0.0,82,0.00,,SKC,0.00,VWS V14.01,2013-02-14 04:03:00,
2013-02-13 20:08:00,41.5,36.4,30.23,WNW,290,0.0,0.0,82,0.00,,SKC,0.00,VWS V14.01,2013-02-14 04:08:00,
2013-02-13 20:13:00,41.3,36.5,30.23,WNW,290,0.0,0.0,83,0.00,,SKC,0.00,VWS V14.01,2013-02-14 04:13:00,
2013-02-13 20:19:00,41.2,36.4,30.22,WNW,290,0.0,0.0,83,0.00,,SKC,0.00,VWS V14.01,2013-02-14 04:19:00,
2013-02-13 20:24:00,41.2,36.7,30.22,WNW,290,0.0,0.0,84,0.00,,SKC,0.00,VWS V14.01,2013-02-14 04:24:00,
2013-02-13 20:29:00,41.1,36.6,30.22,WNW,290,0.0,0.0,84,0.00,,SKC,0.00,VWS V14.01,2013-02-14 04:29:00,
2013-02-13 20:30:00,39.8,36.0,30.19,WNW,290,0.0,0.0,86,0.00,,SKC,0.00,VWS V14.01,2013-02-14 04:30:00,
2013-02-13 20:34:00,40.8,36.3,30.22,WNW,290,0.0,0.0,84,0.00,,SKC,0.00,VWS V14.01,2013-02-14 04:34:00,
2013-02-13 20:39:00,40.6,36.2,30.22,WNW,290,0.0,0.0,84,0.00,,SKC,0.00,VWS V14.01,2013-02-14 04:39:00,
2013-02-13 20:44:00,40.5,36.3,30.21,WNW,290,0.0,0.0,85,0.00,,SKC,0.00,VWS V14.01,2013-02-14 04:44:00,
2013-02-13 20:49:00,40.5,36.3,30.21,WNW,290,0.0,0.0,85,0.00,,SKC,0.00,VWS V14.01,2013-02-14 04:49:00,
2013-02-13 20:54:00,40.3,36.2,30.21,WNW,290,0.0,0.0,85,0.00,,SKC,0.00,VWS V14.01,2013-02-14 04:54:00,
2013-02-13 20:59:00,40.2,36.1,30.21,WNW,290,0.0,0.0,85,0.00,,SKC,0.00,VWS V14.01,2013-02-14 04:59:00,
2013-02-13 21:00:00,40.2,36.1,30.21,WNW,290,0.0,0.0,85,0.00,,SKC,0.00,VWS V14.01,2013-02-14 05:00:00,
2013-02-13 21:03:00,40.2,36.3,30.21,WNW,290,0.0,0.0,86,0.00,,SKC,0.00,VWS V14.01,2013-02-14 05:03:00,
2013-02-13 21:05:00,40.1,36.3,30.21,WNW,290,0.0,0.0,86,0.00,,SKC,0.00,VWS V14.01,2013-02-14 05:05:00,
2013-02-13 21:10:00,40.2,36.3,30.21,WNW,290,0.0,0.0,86,0.00,,SKC,0.00,VWS V14.01,2013-02-14 05:10:00,
2013-02-13 21:15:00,40.3,36.8,30.19,WNW,290,0.0,0.0,87,0.00,,SKC,0.00,VWS V14.01,2013-02-14 05:15:00,
2013-02-13 21:20:00,40.3,36.5,30.19,WNW,290,0.0,0.0,86,0.00,,SKC,0.00,VWS V14.01,2013-02-14 05:20:00,
2013-02-13 21:25:00,40.1,36.3,30.19,WNW,290,0.0,0.0,86,0.00,,SKC,0.00,VWS V14.01,2013-02-14 05:25:00,
2013-02-13 21:30:00,39.8,36.0,30.19,WNW,290,0.0,0.0,86,0.00,,SKC,0.00,VWS V14.01,2013-02-14 05:30:00,
2013-02-13 21:35:00,39.5,35.7,30.19,WNW,290,0.0,0.0,86,0.00,,SKC,0.00,VWS V14.01,2013-02-14 05:35:00,
2013-02-13 21:40:00,39.5,36.0,30.19,WNW,290,0.0,0.0,87,0.00,,SKC,0.00,VWS V14.01,2013-02-14 05:40:00,
2013-02-13 21:45:00,39.6,36.1,30.19,WNW,290,0.0,0.0,87,0.00,,SKC,0.00,VWS V14.01,2013-02-14 05:45:00,
2013-02-13 21:50:00,39.6,36.1,30.19,WNW,290,0.0,0.0,87,0.00,,SKC,0.00,VWS V14.01,2013-02-14 05:50:00,
2013-02-13 21:56:00,39.8,36.2,30.19,WNW,290,0.0,0.0,87,0.00,,SKC,0.00,VWS V14.01,2013-02-14 05:56:00,
2013-02-13 22:00:00,40.5,36.1,30.19,WNW,290,0.0,1.0,84,0.00,,SKC,0.00,VWS V14.01,2013-02-14 06:00:00,
2013-02-13 22:01:00,39.8,36.2,30.19,WNW,290,0.0,0.0,87,0.00,,SKC,0.00,VWS V14.01,2013-02-14 06:01:00,
2013-02-13 22:06:00,39.8,36.2,30.19,WNW,290,0.0,0.0,87,0.00,,SKC,0.00,VWS V14.01,2013-02-14 06:06:00,
2013-02-13 22:11:00,39.9,36.3,30.19,WNW,290,0.0,0.0,87,0.00,,SKC,0.00,VWS V14.01,2013-02-14 06:11:00,
2013-02-13 22:16:00,40.2,36.7,30.18,WNW,290,0.0,0.0,87,0.00,,SKC,0.00,VWS V14.01,2013-02-14 06:16:00,
2013-02-13 22:21:00,40.5,36.9,30.18,WNW,290,0.0,0.0,87,0.00,,SKC,0.00,VWS V14.01,2013-02-14 06:21:00,
2013-02-13 22:26:00,40.6,37.0,30.18,WNW,290,0.0,0.0,87,0.00,,SKC,0.00,VWS V14.01,2013-02-14 06:26:00,
2013-02-13 22:30:00,40.1,35.4,30.18,WNW,290,0.0,2.0,83,0.00,,SKC,0.00,VWS V14.01,2013-02-14 06:30:00,
2013-02-13 22:31:00,40.6,36.8,30.18,WNW,290,0.0,0.0,86,0.00,,SKC,0.00,VWS V14.01,2013-02-14 06:31:00,
2013-02-13 22:36:00,40.5,36.3,30.18,WNW,290,0.0,0.0,85,0.00,,SKC,0.00,VWS V14.01,2013-02-14 06:36:00,
2013-02-13 22:41:00,40.3,36.5,30.18,WNW,290,0.0,0.0,86,0.00,,SKC,0.00,VWS V14.01,2013-02-14 06:41:00,
2013-02-13 22:46:00,40.5,36.7,30.18,WNW,290,0.0,0.0,86,0.00,,SKC,0.00,VWS V14.01,2013-02-14 06:46:00,
2013-02-13 22:51:00,40.6,36.5,30.18,WNW,290,0.0,1.0,85,0.00,,SKC,0.00,VWS V14.01,2013-02-14 06:51:00,
2013-02-13 22:56:00,40.6,36.2,30.18,WNW,290,0.0,1.0,84,0.00,,SKC,0.00,VWS V14.01,2013-02-14 06:56:00,
2013-02-13 23:00:00,40.5,33.5,30.18,WNW,290,0.0,2.0,76,0.00,,SKC,0.00,VWS V14.01,2013-02-14 07:00:00,
2013-02-13 23:01:00,40.3,36.2,30.19,WNW,290,0.0,0.0,85,0.00,,SKC,0.00,VWS V14.01,2013-02-14 07:01:00,
2013-02-13 23:07:00,40.1,36.0,30.19,WNW,290,0.0,0.0,85,0.00,,SKC,0.00,VWS V14.01,2013-02-14 07:07:00,
2013-02-13 23:12:00,40.1,36.0,30.19,WNW,290,0.0,2.0,85,0.00,,SKC,0.00,VWS V14.01,2013-02-14 07:12:00,
2013-02-13 23:17:00,40.1,36.0,30.18,WNW,290,0.0,2.0,85,0.00,,SKC,0.00,VWS V14.01,2013-02-14 07:17:00,
2013-02-13 23:22:00,39.9,35.8,30.18,WNW,290,0.0,2.0,85,0.00,,SKC,0.00,VWS V14.01,2013-02-14 07:22:00,
2013-02-13 23:27:00,39.9,35.2,30.18,WNW,290,0.0,2.0,83,0.00,,SKC,0.00,VWS V14.01,2013-02-14 07:27:00,
2013-02-13 23:30:00,42.8,32.6,30.17,WNW,290,0.0,2.0,67,0.00,,SKC,0.00,VWS V14.01,2013-02-14 07:30:00,
2013-02-13 23:32:00,40.1,35.1,30.18,WNW,290,0.0,0.0,82,0.00,,SKC,0.00,VWS V14.01,2013-02-14 07:32:00,
2013-02-13 23:37:00,40.2,35.2,30.18,WNW,290,0.0,2.0,82,0.00,,SKC,0.00,VWS V14.01,2013-02-14 07:37:00,
2013-02-13 23:42:00,40.1,34.8,30.18,WNW,290,0.0,2.0,81,0.00,,SKC,0.00,VWS V14.01,2013-02-14 07:42:00,
2013-02-13 23:47:00,40.1,34.1,30.18,WNW,290,0.0,2.0,79,0.00,,SKC,0.00,VWS V14.01,2013-02-14 07:47:00,
2013-02-13 23:52:00,40.3,34.3,30.18,WNW,290,0.0,2.0,79,0.00,,SKC,0.00,VWS V14.01,2013-02-14 07:52:00,
2013-02-13 23:57:00,40.3,34.0,30.18,WNW,290,0.0,2.0,78,0.00,,SKC,0.00,VWS V14.01,2013-02-14 07:57:00,